Time;durP1;ratioP1;P1;durP2;ratioP2;P2;SDS_P1;SDS_P2;PMS_P1;PMS_P2;Temp;Humidity;BMP_temperature;BMP_pressure;BME280_temperature;BME280_humidity;BME280_pressure;Samples;Min_cycle;Max_cycle;Signal;HPM_P1;HPM_P2
2023/10/25 00:01:25;;;;;;;1.40;0.73;;;20.10;52.20;;;;;;5066206;28;20375;-53
2023/10/25 00:03:51;;;;;;;1.30;0.60;;;20.10;52.20;;;;;;5068264;28;20051;-57
2023/10/25 00:06:17;;;;;;;0.88;0.40;;;20.10;52.10;;;;;;5065020;28;20025;-55
2023/10/25 00:08:43;;;;;;;0.88;0.63;;;20.00;52.10;;;;;;5068193;28;20083;-54
2023/10/25 00:11:09;;;;;;;0.98;0.60;;;20.10;52.10;;;;;;5071154;28;20039;-59
2023/10/25 00:13:36;;;;;;;1.08;0.70;;;20.00;52.00;;;;;;5071110;28;20322;-55
2023/10/25 00:16:02;;;;;;;0.82;0.60;;;20.00;52.00;;;;;;5071816;28;20036;-53
2023/10/25 00:18:29;;;;;;;1.05;0.60;;;20.00;52.00;;;;;;5070725;28;20028;-57
2023/10/25 00:20:55;;;;;;;2.63;0.90;;;20.00;52.00;;;;;;5067466;28;20020;-57
2023/10/25 00:23:21;;;;;;;2.30;1.05;;;20.00;52.00;;;;;;5074804;28;20021;-52
2023/10/25 00:25:51;;;;;;;1.05;0.73;;;20.00;52.00;;;;;;5074749;28;20032;-57
2023/10/25 00:28:17;;;;;;;2.58;0.80;;;20.00;52.00;;;;;;5075973;28;20040;-54
2023/10/25 00:30:46;;;;;;;1.05;0.70;;;20.00;51.90;;;;;;5072316;28;20047;-55
2023/10/25 00:33:12;;;;;;;0.82;0.68;;;20.00;51.90;;;;;;5076275;28;20054;-56
2023/10/25 00:35:38;;;;;;;0.80;0.60;;;20.00;51.90;;;;;;5073789;28;20040;-53
2023/10/25 00:38:04;;;;;;;1.45;0.80;;;20.00;51.90;;;;;;5062767;28;20035;-56
2023/10/25 00:40:30;;;;;;;0.55;0.40;;;20.00;51.90;;;;;;5068665;28;20057;-57
2023/10/25 00:43:15;;;;;;;1.35;0.60;;;20.00;51.90;;;;;;5056241;28;20032;-57
2023/10/25 00:46:03;;;;;;;0.85;0.50;;;20.00;51.80;;;;;;5074982;28;20116;-58
2023/10/25 00:48:31;;;;;;;2.53;0.88;;;20.00;51.90;;;;;;5073223;28;20025;-56
2023/10/25 00:50:59;;;;;;;1.00;0.70;;;20.00;51.90;;;;;;5072798;28;20079;-58
2023/10/25 00:53:26;;;;;;;1.52;0.80;;;19.90;51.80;;;;;;5068908;28;20396;-57
2023/10/25 00:55:55;;;;;;;0.60;0.52;;;19.90;51.80;;;;;;5058408;28;20043;-58
2023/10/25 00:58:23;;;;;;;2.05;0.65;;;20.00;51.80;;;;;;5071762;28;20042;-57
2023/10/25 01:00:49;;;;;;;1.15;0.73;;;19.90;51.80;;;;;;5071195;28;20126;-58
2023/10/25 01:03:16;;;;;;;1.52;0.90;;;19.90;51.80;;;;;;5073329;28;20325;-56
2023/10/25 01:05:43;;;;;;;0.70;0.60;;;19.90;51.80;;;;;;5070438;28;20040;-53
2023/10/25 01:08:09;;;;;;;1.35;0.70;;;19.90;51.80;;;;;;5076638;28;20100;-56
2023/10/25 01:10:36;;;;;;;1.65;0.80;;;19.90;51.80;;;;;;5072790;28;20021;-52
2023/10/25 01:13:02;;;;;;;2.22;0.60;;;19.90;51.80;;;;;;5069347;28;20078;-59
2023/10/25 01:15:28;;;;;;;1.45;0.80;;;19.90;51.70;;;;;;5062037;28;20032;-53
2023/10/25 01:17:54;;;;;;;1.95;0.43;;;19.90;51.70;;;;;;5072200;28;20039;-57
2023/10/25 01:20:20;;;;;;;1.70;0.68;;;20.00;51.80;;;;;;5074408;28;20116;-58
2023/10/25 01:22:49;;;;;;;0.80;0.57;;;19.90;51.70;;;;;;5060312;28;20024;-53
2023/10/25 01:25:15;;;;;;;1.27;0.75;;;19.90;51.70;;;;;;5070434;28;20466;-51
2023/10/25 01:27:41;;;;;;;1.35;0.80;;;19.90;51.70;;;;;;5072021;28;20384;-58
2023/10/25 01:30:08;;;;;;;1.60;0.70;;;19.90;51.60;;;;;;5068790;28;20166;-53
2023/10/25 01:32:33;;;;;;;1.45;0.50;;;19.90;51.60;;;;;;5060041;28;20107;-55
2023/10/25 01:34:59;;;;;;;1.48;0.60;;;19.90;51.60;;;;;;5065076;28;20183;-52
2023/10/25 01:37:25;;;;;;;0.73;0.60;;;19.90;51.60;;;;;;5051822;28;20040;-57
2023/10/25 01:39:51;;;;;;;1.77;0.80;;;19.90;51.60;;;;;;5076811;28;20024;-58
2023/10/25 01:42:17;;;;;;;1.33;0.57;;;19.90;51.60;;;;;;5073064;28;20031;-52
2023/10/25 01:44:44;;;;;;;0.82;0.60;;;19.90;51.60;;;;;;5068814;28;20358;-54
2023/10/25 01:47:09;;;;;;;1.15;0.57;;;19.90;51.60;;;;;;5072795;28;20054;-55
2023/10/25 01:49:35;;;;;;;0.90;0.70;;;19.80;51.50;;;;;;5073521;28;20045;-57
2023/10/25 01:52:02;;;;;;;1.73;0.68;;;19.90;51.50;;;;;;5057683;28;20028;-56
2023/10/25 01:54:28;;;;;;;2.08;0.60;;;19.80;51.40;;;;;;5073255;28;20462;-55
2023/10/25 01:56:53;;;;;;;1.33;0.60;;;19.80;51.50;;;;;;5081168;28;20072;-56
2023/10/25 01:59:19;;;;;;;0.90;0.63;;;19.80;51.40;;;;;;5036990;28;20021;-54
2023/10/25 02:01:45;;;;;;;1.80;0.82;;;19.90;51.50;;;;;;5044588;28;20117;-51
2023/10/25 02:04:11;;;;;;;3.33;0.73;;;19.80;51.40;;;;;;5056575;28;20032;-55
2023/10/25 02:06:37;;;;;;;1.05;0.60;;;19.80;51.40;;;;;;5056966;28;20327;-57
2023/10/25 02:09:03;;;;;;;1.08;0.68;;;19.80;51.40;;;;;;5056276;28;20432;-56
2023/10/25 02:11:29;;;;;;;1.45;0.70;;;19.80;51.40;;;;;;5081756;28;20024;-54
2023/10/25 02:13:56;;;;;;;2.58;0.70;;;19.80;51.30;;;;;;5056434;28;20102;-55
2023/10/25 02:16:23;;;;;;;0.70;0.55;;;19.80;51.30;;;;;;5067053;28;20044;-57
2023/10/25 02:18:49;;;;;;;0.98;0.40;;;19.80;51.30;;;;;;5054611;28;20021;-58
2023/10/25 02:21:15;;;;;;;1.20;0.60;;;19.80;51.30;;;;;;5072410;28;20017;-56
2023/10/25 02:23:42;;;;;;;1.02;0.50;;;19.80;51.30;;;;;;5055293;28;20031;-56
2023/10/25 02:26:08;;;;;;;1.38;0.60;;;19.80;51.20;;;;;;5055295;28;20031;-57
2023/10/25 02:28:34;;;;;;;1.27;0.55;;;19.80;51.30;;;;;;5075961;28;20036;-58
2023/10/25 02:31:00;;;;;;;1.30;0.57;;;19.80;51.20;;;;;;5070859;28;20052;-57
2023/10/25 02:33:26;;;;;;;2.28;0.68;;;19.80;51.80;;;;;;5076858;28;20098;-59
2023/10/25 02:35:53;;;;;;;1.13;0.70;;;19.80;51.10;;;;;;5071190;28;20036;-57
2023/10/25 02:38:20;;;;;;;1.67;0.90;;;19.80;51.10;;;;;;5050686;28;20447;-60
2023/10/25 02:40:45;;;;;;;2.75;0.90;;;19.80;51.10;;;;;;5054526;28;20035;-54
2023/10/25 02:43:11;;;;;;;1.05;0.70;;;19.80;51.10;;;;;;5058985;28;20416;-55
2023/10/25 02:45:37;;;;;;;1.35;0.68;;;19.80;51.00;;;;;;5078337;28;20032;-56
2023/10/25 02:48:04;;;;;;;1.58;0.80;;;19.80;51.00;;;;;;5072877;28;20032;-54
2023/10/25 02:50:30;;;;;;;0.90;0.50;;;19.80;50.90;;;;;;5070268;28;20107;-53
2023/10/25 02:52:56;;;;;;;0.90;0.60;;;19.80;50.90;;;;;;5072928;28;20148;-57
2023/10/25 02:55:22;;;;;;;1.52;0.60;;;19.80;50.80;;;;;;5071758;28;20444;-52
2023/10/25 02:57:48;;;;;;;1.08;0.70;;;19.80;50.80;;;;;;5060976;28;20339;-61
2023/10/25 03:00:14;;;;;;;0.95;0.50;;;19.90;50.80;;;;;;5075143;28;20090;-56
2023/10/25 03:02:41;;;;;;;0.80;0.50;;;19.90;50.70;;;;;;5072554;28;20451;-51
2023/10/25 03:05:07;;;;;;;0.80;0.60;;;19.80;50.60;;;;;;5056679;28;20021;-55
2023/10/25 03:07:33;;;;;;;1.05;0.55;;;19.80;50.50;;;;;;5054528;28;20028;-58
2023/10/25 03:09:58;;;;;;;1.42;0.70;;;19.90;50.50;;;;;;5078748;28;20321;-56
2023/10/25 03:12:24;;;;;;;1.48;0.80;;;19.90;50.50;;;;;;5049692;28;20392;-57
2023/10/25 03:14:50;;;;;;;2.45;0.80;;;19.90;50.40;;;;;;5069220;28;20035;-58
2023/10/25 03:17:16;;;;;;;1.02;0.60;;;19.90;50.40;;;;;;5070376;28;20043;-55
2023/10/25 03:19:42;;;;;;;1.00;0.50;;;19.90;50.30;;;;;;5063113;28;20040;-54
2023/10/25 03:22:08;;;;;;;0.77;0.60;;;19.90;50.30;;;;;;5064775;28;20410;-56
2023/10/25 03:24:33;;;;;;;1.33;0.30;;;19.90;50.20;;;;;;5062985;28;20426;-54
2023/10/25 03:27:00;;;;;;;1.05;0.70;;;19.90;50.20;;;;;;5078663;28;20347;-58
2023/10/25 03:29:25;;;;;;;1.95;0.80;;;19.90;50.20;;;;;;5059158;28;20044;-54
2023/10/25 03:31:53;;;;;;;1.15;0.60;;;19.90;50.10;;;;;;5062645;28;20028;-58
2023/10/25 03:34:19;;;;;;;0.75;0.55;;;19.90;50.00;;;;;;5071712;28;20059;-53
2023/10/25 03:36:45;;;;;;;1.00;0.50;;;19.90;50.00;;;;;;5066026;28;20037;-57
2023/10/25 03:39:15;;;;;;;1.45;0.60;;;19.90;50.00;;;;;;5070796;28;20325;-55
2023/10/25 03:41:43;;;;;;;1.35;0.80;;;19.90;49.90;;;;;;5067525;28;20032;-57
2023/10/25 03:44:09;;;;;;;1.27;0.70;;;19.90;49.90;;;;;;5071120;28;20025;-53
2023/10/25 03:46:34;;;;;;;1.20;0.50;;;19.90;49.80;;;;;;5055348;28;20028;-54
2023/10/25 03:49:00;;;;;;;0.93;0.70;;;19.90;49.80;;;;;;5054599;28;20462;-54
2023/10/25 03:51:26;;;;;;;0.63;0.50;;;19.90;49.70;;;;;;5046553;28;20081;-57
2023/10/25 03:53:52;;;;;;;0.90;0.60;;;20.00;49.70;;;;;;5064965;28;20352;-56
2023/10/25 03:56:18;;;;;;;1.08;0.60;;;19.90;49.70;;;;;;5074554;28;20047;-54
2023/10/25 03:58:44;;;;;;;0.93;0.52;;;19.90;49.60;;;;;;5074579;28;20108;-55
2023/10/25 04:01:09;;;;;;;0.90;0.60;;;19.90;49.50;;;;;;5074934;28;20023;-56
2023/10/25 04:03:35;;;;;;;1.48;0.60;;;19.90;49.50;;;;;;5052836;28;20036;-53
2023/10/25 04:06:04;;;;;;;1.63;0.82;;;19.90;49.40;;;;;;5074476;28;20047;-54
2023/10/25 04:08:30;;;;;;;1.30;0.70;;;19.90;49.30;;;;;;5075262;28;20040;-54
2023/10/25 04:10:56;;;;;;;0.52;0.40;;;19.90;49.30;;;;;;5067466;28;20025;-55
2023/10/25 04:13:23;;;;;;;2.15;0.80;;;19.90;49.30;;;;;;5067601;28;20027;-56
2023/10/25 04:16:04;;;;;;;1.17;0.60;;;19.90;49.20;;;;;;5076994;28;20028;-54
2023/10/25 04:18:31;;;;;;;1.02;0.60;;;20.00;49.20;;;;;;5072240;28;20039;-57
2023/10/25 04:21:00;;;;;;;1.40;0.82;;;19.90;49.10;;;;;;5073741;28;20123;-60
2023/10/25 04:23:30;;;;;;;1.38;0.68;;;19.90;49.10;;;;;;5067371;28;20021;-57
2023/10/25 04:26:09;;;;;;;1.08;0.60;;;19.90;49.10;;;;;;5064809;28;20047;-54
2023/10/25 04:28:37;;;;;;;1.48;0.70;;;20.00;49.10;;;;;;5066420;28;20410;-56
2023/10/25 04:31:06;;;;;;;1.40;0.70;;;20.00;49.10;;;;;;5070431;28;20024;-52
2023/10/25 04:33:32;;;;;;;1.35;0.60;;;19.90;49.10;;;;;;5066140;28;20044;-59
2023/10/25 04:35:58;;;;;;;1.48;0.70;;;19.90;49.00;;;;;;5067684;28;20040;-57
2023/10/25 04:38:24;;;;;;;1.08;0.70;;;19.90;49.00;;;;;;5065982;28;20051;-53
2023/10/25 04:40:53;;;;;;;1.65;0.60;;;19.90;49.00;;;;;;5062057;28;20033;-58
2023/10/25 04:43:19;;;;;;;1.38;0.50;;;19.90;49.00;;;;;;5075162;28;20049;-59
2023/10/25 04:45:46;;;;;;;2.88;0.70;;;20.00;49.00;;;;;;5067723;28;20115;-56
2023/10/25 04:48:11;;;;;;;0.75;0.52;;;19.90;48.90;;;;;;5071210;28;20029;-56
2023/10/25 04:50:38;;;;;;;1.67;0.60;;;19.90;48.80;;;;;;5076669;28;20017;-55
2023/10/25 04:53:04;;;;;;;1.30;0.70;;;19.90;48.90;;;;;;5067247;28;20404;-54
2023/10/25 04:55:31;;;;;;;1.23;0.70;;;19.90;48.80;;;;;;5067766;28;20419;-58
2023/10/25 04:57:57;;;;;;;0.93;0.50;;;19.90;48.80;;;;;;5075048;28;20028;-55
2023/10/25 05:00:23;;;;;;;2.28;0.77;;;19.90;48.80;;;;;;5063607;28;20036;-52
2023/10/25 05:02:49;;;;;;;0.50;0.40;;;19.90;49.40;;;;;;5073867;28;20071;-55
2023/10/25 05:05:15;;;;;;;0.90;0.70;;;19.90;48.80;;;;;;5071467;28;20379;-58
2023/10/25 05:07:42;;;;;;;1.02;0.50;;;19.90;48.70;;;;;;5071534;28;20032;-59
2023/10/25 05:10:09;;;;;;;2.13;0.70;;;19.90;48.80;;;;;;5068388;28;20028;-57
2023/10/25 05:12:44;;;;;;;2.65;0.68;;;19.90;48.70;;;;;;5069745;28;20167;-58
2023/10/25 05:15:15;;;;;;;0.95;0.52;;;19.90;48.80;;;;;;5068617;28;20119;-55
2023/10/25 05:17:43;;;;;;;1.10;0.70;;;19.90;48.80;;;;;;5075991;28;20131;-54
2023/10/25 05:20:10;;;;;;;2.10;0.63;;;19.90;48.80;;;;;;5074798;28;20266;-58
2023/10/25 05:22:40;;;;;;;1.25;0.40;;;19.90;48.90;;;;;;5074497;28;20036;-54
2023/10/25 05:25:08;;;;;;;1.25;0.60;;;19.90;48.80;;;;;;5073910;28;20017;-56
2023/10/25 05:27:34;;;;;;;1.23;0.63;;;19.90;48.80;;;;;;5076856;28;20044;-57
2023/10/25 05:30:05;;;;;;;0.93;0.50;;;20.00;48.90;;;;;;5071902;28;20020;-55
2023/10/25 05:32:32;;;;;;;0.93;0.50;;;19.90;48.80;;;;;;5076154;28;20036;-58
2023/10/25 05:35:00;;;;;;;2.50;1.02;;;19.90;48.80;;;;;;5075712;28;20048;-57
2023/10/25 05:37:27;;;;;;;0.73;0.52;;;19.90;48.80;;;;;;5071682;28;20071;-58
2023/10/25 05:39:53;;;;;;;1.70;0.68;;;19.90;48.80;;;;;;5073851;28;20082;-55
2023/10/25 05:42:20;;;;;;;0.52;0.43;;;19.90;48.80;;;;;;5076365;28;20032;-58
2023/10/25 05:44:51;;;;;;;1.40;0.80;;;19.90;48.80;;;;;;5070178;28;20447;-55
2023/10/25 05:47:17;;;;;;;1.30;0.68;;;19.90;48.70;;;;;;5077872;28;20024;-58
2023/10/25 05:49:43;;;;;;;1.30;0.65;;;19.90;48.70;;;;;;5072825;28;20475;-54
2023/10/25 05:52:10;;;;;;;0.70;0.63;;;19.90;48.70;;;;;;5074135;28;20399;-57
2023/10/25 05:54:37;;;;;;;1.10;0.65;;;19.90;48.70;;;;;;5073465;28;20052;-53
2023/10/25 05:57:06;;;;;;;1.48;0.60;;;19.90;48.70;;;;;;5075794;28;20051;-58
2023/10/25 05:59:32;;;;;;;1.15;0.55;;;19.90;48.70;;;;;;5072490;28;20048;-55
2023/10/25 06:02:10;;;;;;;1.20;0.70;;;19.90;48.70;;;;;;5072200;28;20359;-57
2023/10/25 06:04:37;;;;;;;1.10;0.57;;;19.90;48.70;;;;;;5075443;28;20095;-59
2023/10/25 06:07:05;;;;;;;0.82;0.50;;;19.90;48.70;;;;;;5070754;28;20024;-56
2023/10/25 06:09:32;;;;;;;1.10;0.70;;;19.90;48.80;;;;;;5076834;28;20374;-55
2023/10/25 06:11:58;;;;;;;1.83;0.80;;;19.90;48.80;;;;;;5073490;28;20032;-56
2023/10/25 06:14:24;;;;;;;1.85;0.70;;;19.90;48.80;;;;;;5074767;28;20048;-56
2023/10/25 06:16:50;;;;;;;1.63;0.63;;;19.90;48.80;;;;;;5071806;28;20049;-54
2023/10/25 06:19:16;;;;;;;1.02;0.68;;;19.90;48.80;;;;;;5074415;28;20122;-59
2023/10/25 06:21:42;;;;;;;1.38;0.75;;;19.90;48.80;;;;;;5076607;28;20035;-58
2023/10/25 06:24:08;;;;;;;1.42;0.52;;;19.90;48.80;;;;;;5072545;28;20028;-55
2023/10/25 06:26:34;;;;;;;1.15;0.70;;;19.90;48.90;;;;;;5073797;28;20120;-55
2023/10/25 06:28:59;;;;;;;1.48;0.40;;;19.90;48.90;;;;;;5077898;28;20035;-57
2023/10/25 06:31:25;;;;;;;0.63;0.40;;;19.90;48.90;;;;;;5071160;28;20431;-57
2023/10/25 06:33:51;;;;;;;0.80;0.43;;;19.90;48.90;;;;;;5076785;28;20055;-51
2023/10/25 06:36:17;;;;;;;0.55;0.45;;;19.90;48.90;;;;;;5071917;28;20047;-52
2023/10/25 06:38:43;;;;;;;0.82;0.57;;;19.90;48.90;;;;;;5074503;28;20522;-58
2023/10/25 06:41:17;;;;;;;1.45;0.70;;;19.90;48.90;;;;;;5075946;28;20039;-58
2023/10/25 06:43:43;;;;;;;1.23;0.55;;;19.90;48.90;;;;;;5073851;28;20328;-56
2023/10/25 06:46:10;;;;;;;1.80;0.60;;;19.90;49.00;;;;;;5072101;28;20024;-55
2023/10/25 06:48:37;;;;;;;1.17;0.60;;;19.90;49.00;;;;;;5077734;28;20372;-54
2023/10/25 06:51:05;;;;;;;1.83;0.70;;;19.90;49.00;;;;;;5073103;28;20052;-56
2023/10/25 06:53:32;;;;;;;1.52;0.60;;;19.90;49.00;;;;;;5071002;28;20032;-56
2023/10/25 06:55:59;;;;;;;1.88;0.80;;;19.90;49.00;;;;;;5054239;28;20837;-56
2023/10/25 06:58:25;;;;;;;2.08;0.85;;;19.90;49.10;;;;;;5069834;28;20583;-57
2023/10/25 07:00:55;;;;;;;1.45;0.57;;;19.90;49.10;;;;;;5071641;28;20351;-55
2023/10/25 07:03:27;;;;;;;0.70;0.40;;;19.90;49.10;;;;;;5070517;28;20489;-52
2023/10/25 07:05:55;;;;;;;0.70;0.47;;;20.00;49.10;;;;;;5069649;28;20036;-56
2023/10/25 07:08:21;;;;;;;1.65;0.70;;;20.00;49.20;;;;;;5073847;28;20039;-55
2023/10/25 07:10:48;;;;;;;2.00;0.60;;;19.90;49.10;;;;;;5075319;28;20104;-54
2023/10/25 07:13:13;;;;;;;0.98;0.60;;;19.90;49.20;;;;;;5074281;28;20028;-56
2023/10/25 07:15:39;;;;;;;3.13;0.70;;;20.00;49.30;;;;;;5078930;28;20351;-53
2023/10/25 07:18:05;;;;;;;1.73;0.70;;;20.00;49.30;;;;;;5073660;28;20512;-57
2023/10/25 07:20:31;;;;;;;1.67;0.75;;;20.00;49.40;;;;;;5081377;28;20521;-54
2023/10/25 07:22:57;;;;;;;1.30;0.65;;;20.00;49.40;;;;;;5084004;28;20455;-55
2023/10/25 07:25:23;;;;;;;1.35;0.75;;;20.00;49.40;;;;;;5081857;28;20038;-56
2023/10/25 07:27:49;;;;;;;1.98;0.82;;;20.00;49.40;;;;;;5080370;28;20083;-53
2023/10/25 07:30:15;;;;;;;1.52;0.73;;;20.00;49.40;;;;;;5075538;28;20040;-56
2023/10/25 07:32:41;;;;;;;1.33;0.82;;;20.00;49.40;;;;;;5075892;28;20504;-58
2023/10/25 07:35:07;;;;;;;0.93;0.60;;;20.00;49.40;;;;;;5075155;28;20044;-55
2023/10/25 07:37:33;;;;;;;1.80;0.60;;;20.00;49.40;;;;;;5078812;28;20045;-56
2023/10/25 07:39:59;;;;;;;1.48;0.63;;;20.00;49.50;;;;;;5072575;28;20123;-53
2023/10/25 07:42:25;;;;;;;1.25;0.73;;;20.00;49.50;;;;;;5082471;28;20020;-55
2023/10/25 07:44:51;;;;;;;1.08;0.57;;;20.00;49.50;;;;;;5073261;28;20355;-55
2023/10/25 07:47:17;;;;;;;1.50;0.88;;;20.00;49.50;;;;;;5074365;28;20032;-54
2023/10/25 07:49:46;;;;;;;2.05;0.90;;;20.00;50.10;;;;;;5075104;28;20032;-53
2023/10/25 07:52:12;;;;;;;1.95;0.82;;;20.00;49.50;;;;;;5074148;28;20115;-55
2023/10/25 07:54:38;;;;;;;2.17;0.90;;;20.00;49.50;;;;;;5074834;28;20028;-52
2023/10/25 07:57:04;;;;;;;1.88;0.80;;;20.00;49.60;;;;;;5055877;28;20036;-54
2023/10/25 07:59:30;;;;;;;1.30;0.68;;;20.00;49.60;;;;;;5074010;28;20028;-56
2023/10/25 08:01:57;;;;;;;2.42;0.88;;;20.00;49.60;;;;;;5074976;28;20489;-55
2023/10/25 08:04:23;;;;;;;2.05;0.75;;;20.00;49.60;;;;;;5074956;28;20024;-51
2023/10/25 08:06:49;;;;;;;2.85;1.05;;;20.00;49.70;;;;;;5078946;28;20033;-55
2023/10/25 08:09:15;;;;;;;1.25;0.73;;;20.00;49.70;;;;;;5083662;28;20134;-50
2023/10/25 08:11:41;;;;;;;2.65;0.70;;;20.00;49.70;;;;;;5089753;28;20081;-54
2023/10/25 08:14:07;;;;;;;1.70;0.90;;;20.00;49.80;;;;;;5087353;28;20394;-53
2023/10/25 08:16:38;;;;;;;1.27;0.80;;;20.00;49.80;;;;;;5085324;28;20040;-58
2023/10/25 08:19:05;;;;;;;1.40;0.60;;;20.00;49.80;;;;;;5078538;28;20039;-53
2023/10/25 08:21:31;;;;;;;0.75;0.55;;;20.00;49.80;;;;;;5087104;28;20362;-55
2023/10/25 08:23:57;;;;;;;1.42;0.70;;;20.00;49.80;;;;;;5087690;28;20116;-55
2023/10/25 08:26:25;;;;;;;1.40;0.70;;;20.00;49.90;;;;;;5088377;28;20139;-55
2023/10/25 08:28:51;;;;;;;1.63;0.57;;;20.00;49.80;;;;;;5085227;28;20024;-56
2023/10/25 08:31:18;;;;;;;1.95;0.75;;;20.00;49.80;;;;;;5088510;28;20057;-58
2023/10/25 08:33:45;;;;;;;1.23;0.65;;;20.00;49.90;;;;;;5082166;28;20059;-54
2023/10/25 08:36:11;;;;;;;0.98;0.60;;;20.00;49.90;;;;;;5086702;28;20039;-56
2023/10/25 08:38:37;;;;;;;1.90;0.68;;;20.00;49.90;;;;;;5084510;28;20077;-57
2023/10/25 08:41:07;;;;;;;0.80;0.60;;;20.00;49.90;;;;;;5083870;28;20103;-54
2023/10/25 08:43:34;;;;;;;1.25;0.73;;;20.00;49.90;;;;;;5088989;28;20039;-56
2023/10/25 08:46:04;;;;;;;0.90;0.70;;;20.00;49.90;;;;;;5090194;28;20532;-56
2023/10/25 08:48:30;;;;;;;2.05;0.70;;;20.00;49.90;;;;;;5087658;28;20067;-53
2023/10/25 08:50:58;;;;;;;0.77;0.52;;;20.00;50.00;;;;;;5089330;28;20028;-53
2023/10/25 08:53:25;;;;;;;2.17;0.90;;;20.00;50.00;;;;;;5092718;28;20024;-54
2023/10/25 08:55:52;;;;;;;1.20;0.80;;;20.10;50.00;;;;;;5087157;28;20048;-58
2023/10/25 08:58:21;;;;;;;0.90;0.60;;;20.00;50.00;;;;;;5089863;28;20097;-55
2023/10/25 09:00:48;;;;;;;1.50;0.70;;;20.00;50.00;;;;;;5084332;28;20032;-54
2023/10/25 09:03:32;;;;;;;1.33;0.63;;;20.00;50.10;;;;;;5086915;28;20031;-57
2023/10/25 09:06:05;;;;;;;;;;;20.00;50.00;;;;;;5084859;28;20036;-56
2023/10/25 09:08:32;;;;;;;1.08;0.70;;;20.10;50.20;;;;;;5086070;28;20338;-54
2023/10/25 09:11:02;;;;;;;2.55;0.93;;;20.00;50.10;;;;;;5085497;28;20185;-54
2023/10/25 09:13:29;;;;;;;1.90;0.70;;;20.00;50.20;;;;;;5058293;28;20441;-53
2023/10/25 09:16:06;;;;;;;1.50;0.77;;;20.00;50.20;;;;;;5080166;28;20032;-54
2023/10/25 09:18:33;;;;;;;1.58;0.80;;;20.00;50.30;;;;;;5079756;28;20115;-56
2023/10/25 09:21:01;;;;;;;1.83;0.75;;;20.00;50.30;;;;;;5090560;28;20036;-53
2023/10/25 09:23:28;;;;;;;2.85;0.88;;;20.00;50.30;;;;;;5090577;28;20024;-52
2023/10/25 09:26:13;;;;;;;1.27;0.70;;;20.10;50.40;;;;;;5083671;28;20040;-55
2023/10/25 09:28:39;;;;;;;1.40;0.60;;;20.10;50.40;;;;;;5084145;28;20104;-54
2023/10/25 09:31:24;;;;;;;1.60;0.90;;;20.10;50.50;;;;;;5087422;28;20525;-54
2023/10/25 09:33:50;;;;;;;1.42;0.55;;;20.00;50.50;;;;;;5065301;28;20048;-55
2023/10/25 09:36:21;;;;;;;2.20;1.10;;;20.10;50.60;;;;;;5096122;28;20059;-57
2023/10/25 09:38:50;;;;;;;3.00;0.88;;;20.10;50.60;;;;;;5076403;28;20047;-53
2023/10/25 09:41:17;;;;;;;1.02;0.70;;;20.10;50.70;;;;;;5056844;28;20021;-56
2023/10/25 09:43:56;;;;;;;1.42;0.70;;;20.10;50.80;;;;;;5056976;28;20032;-55
2023/10/25 09:46:23;;;;;;;1.30;0.63;;;20.10;50.80;;;;;;5056553;28;20051;-57
2023/10/25 09:49:06;;;;;;;0.98;0.52;;;20.10;50.80;;;;;;5056792;28;20116;-54
2023/10/25 09:52:07;;;;;;;2.22;0.95;;;20.10;50.80;;;;;;5056597;28;20051;-54
2023/10/25 09:54:36;;;;;;;3.42;0.75;;;20.10;50.80;;;;;;5085939;28;20032;-55
2023/10/25 09:57:04;;;;;;;1.35;0.80;;;20.10;50.80;;;;;;5077944;28;20044;-53
2023/10/25 09:59:34;;;;;;;2.97;0.98;;;20.20;50.80;;;;;;5083075;28;20434;-52
2023/10/25 10:02:06;;;;;;;2.05;0.70;;;20.20;50.90;;;;;;5055821;28;20040;-53
2023/10/25 10:04:52;;;;;;;1.42;0.70;;;20.30;50.90;;;;;;5055904;28;20416;-54
2023/10/25 10:07:40;;;;;;;3.40;0.98;;;20.30;50.80;;;;;;5065387;28;20489;-54
2023/10/25 10:10:20;;;;;;;3.55;0.82;;;20.40;50.90;;;;;;5090012;28;20020;-57
2023/10/25 10:12:47;;;;;;;1.70;0.60;;;20.40;50.90;;;;;;5095449;28;20275;-58
2023/10/25 10:15:14;;;;;;;3.45;0.80;;;20.40;50.80;;;;;;5096521;28;20035;-52
2023/10/25 10:17:44;;;;;;;1.02;0.80;;;20.50;50.90;;;;;;5059796;28;20388;-56
2023/10/25 10:20:31;;;;;;;1.35;0.65;;;20.50;50.80;;;;;;5078488;28;20067;-54
2023/10/25 10:23:05;;;;;;;6.22;0.80;;;20.50;50.80;;;;;;5096494;28;20040;-52
2023/10/25 10:25:50;;;;;;;0.90;0.60;;;20.50;50.70;;;;;;5093250;28;20028;-55
2023/10/25 10:28:35;;;;;;;1.77;0.88;;;20.50;50.70;;;;;;5095961;28;20036;-61
2023/10/25 10:31:02;;;;;;;1.58;0.68;;;20.50;50.70;;;;;;5096098;28;20037;-52
2023/10/25 10:33:28;;;;;;;1.52;0.80;;;20.50;50.80;;;;;;5078698;28;20060;-58
2023/10/25 10:36:00;;;;;;;3.70;0.80;;;20.50;50.80;;;;;;5074921;28;20029;-57
2023/10/25 10:38:26;;;;;;;2.35;0.80;;;20.50;50.80;;;;;;5074670;28;20172;-54
2023/10/25 10:41:00;;;;;;;1.50;0.80;;;20.50;51.50;;;;;;5080036;28;20056;-57
2023/10/25 10:43:26;;;;;;;3.33;0.65;;;20.50;50.80;;;;;;5073574;28;20031;-58
2023/10/25 10:45:54;;;;;;;6.40;0.85;;;20.50;50.80;;;;;;5071631;28;20120;-57
2023/10/25 10:48:29;;;;;;;3.03;0.80;;;20.40;50.80;;;;;;5078077;28;20024;-54
2023/10/25 10:50:55;;;;;;;1.95;0.80;;;20.50;50.80;;;;;;5072555;28;20386;-58
2023/10/25 10:53:21;;;;;;;2.97;0.77;;;20.50;51.00;;;;;;5086051;28;20044;-57
2023/10/25 10:55:47;;;;;;;1.25;0.68;;;20.40;50.80;;;;;;5071382;28;20067;-57
2023/10/25 10:58:13;;;;;;;2.33;0.80;;;20.50;50.80;;;;;;5074688;28;20024;-53
2023/10/25 11:00:44;;;;;;;2.33;0.85;;;20.40;50.70;;;;;;5072178;28;20036;-55
2023/10/25 11:03:10;;;;;;;0.85;0.52;;;20.40;50.70;;;;;;5075775;28;20028;-55
2023/10/25 11:05:39;;;;;;;1.50;0.70;;;20.40;50.70;;;;;;5076079;28;20225;-59
2023/10/25 11:08:11;;;;;;;2.13;0.70;;;20.40;50.70;;;;;;5079525;28;20024;-56
2023/10/25 11:10:37;;;;;;;0.95;0.80;;;20.40;50.80;;;;;;5057985;28;20344;-57
2023/10/25 11:13:10;;;;;;;1.65;0.85;;;20.40;50.90;;;;;;5085266;28;20339;-59
2023/10/25 11:15:36;;;;;;;2.38;1.10;;;20.40;51.00;;;;;;5093885;28;20409;-57
2023/10/25 11:18:08;;;;;;;1.42;1.00;;;20.40;51.10;;;;;;5082508;28;20032;-58
2023/10/25 11:20:34;;;;;;;1.55;1.10;;;20.50;51.10;;;;;;5093455;28;20451;-59
2023/10/25 11:23:03;;;;;;;2.60;1.60;;;20.50;51.20;;;;;;5094657;28;20038;-57
2023/10/25 11:25:29;;;;;;;2.75;1.30;;;20.50;51.20;;;;;;5068847;28;20060;-58
2023/10/25 11:27:56;;;;;;;2.08;1.63;;;20.50;51.20;;;;;;5074440;28;20024;-59
2023/10/25 11:30:22;;;;;;;4.10;2.03;;;20.60;51.30;;;;;;5074195;28;20029;-56
2023/10/25 11:32:49;;;;;;;3.25;2.05;;;20.60;51.30;;;;;;5074839;28;20029;-54
2023/10/25 11:35:25;;;;;;;2.42;1.80;;;20.60;51.30;;;;;;5073342;28;20048;-57
2023/10/25 11:37:53;;;;;;;4.53;2.83;;;20.60;51.40;;;;;;5074643;28;20378;-56
2023/10/25 11:40:19;;;;;;;4.13;3.08;;;20.60;51.40;;;;;;5074382;28;20032;-57
2023/10/25 11:42:45;;;;;;;3.55;2.80;;;20.60;51.50;;;;;;5055630;28;20033;-58
2023/10/25 11:45:12;;;;;;;4.05;2.80;;;20.50;51.50;;;;;;5054180;28;20037;-59
2023/10/25 11:47:40;;;;;;;3.67;3.08;;;20.60;51.50;;;;;;5067409;28;20072;-57
2023/10/25 11:50:06;;;;;;;3.90;2.92;;;20.60;51.50;;;;;;5092541;28;20036;-56
2023/10/25 11:52:32;;;;;;;3.75;3.08;;;20.60;51.60;;;;;;5094253;28;20028;-58
2023/10/25 11:54:59;;;;;;;4.28;3.35;;;20.50;51.50;;;;;;5094682;28;20426;-58
2023/10/25 11:57:28;;;;;;;4.80;3.85;;;20.50;51.60;;;;;;5091730;28;20047;-56
2023/10/25 11:59:54;;;;;;;5.82;4.50;;;20.50;51.60;;;;;;5081289;28;20036;-56
2023/10/25 12:02:25;;;;;;;5.35;4.35;;;20.50;51.60;;;;;;5083466;28;20032;-57
2023/10/25 12:04:56;;;;;;;5.47;4.47;;;20.50;51.60;;;;;;5074450;28;20095;-58
2023/10/25 12:07:22;;;;;;;5.63;5.05;;;20.50;51.60;;;;;;5078702;28;20031;-53
2023/10/25 12:09:49;;;;;;;6.45;5.03;;;20.50;51.70;;;;;;5084981;28;20056;-56
2023/10/25 12:12:16;;;;;;;6.22;5.22;;;20.50;51.70;;;;;;5073815;28;20032;-59
2023/10/25 12:14:41;;;;;;;5.18;4.63;;;20.50;51.70;;;;;;5075552;28;20025;-58
2023/10/25 12:17:07;;;;;;;4.70;4.07;;;20.50;51.70;;;;;;5078462;28;20055;-57
2023/10/25 12:19:35;;;;;;;3.83;3.08;;;20.50;51.70;;;;;;5080379;28;20029;-58
2023/10/25 12:22:05;;;;;;;4.70;3.15;;;20.50;51.60;;;;;;5078806;28;20435;-58
2023/10/25 12:24:32;;;;;;;4.78;3.17;;;20.50;51.60;;;;;;5076519;28;20033;-58
2023/10/25 12:26:57;;;;;;;4.53;3.15;;;20.50;51.60;;;;;;5075803;28;20059;-58
2023/10/25 12:29:25;;;;;;;3.60;3.08;;;20.50;51.60;;;;;;5055018;28;20063;-57
2023/10/25 12:31:50;;;;;;;4.53;3.47;;;20.50;51.60;;;;;;5090509;28;20043;-58
2023/10/25 12:34:16;;;;;;;6.95;4.35;;;20.50;51.60;;;;;;5095289;28;20451;-59
2023/10/25 12:36:42;;;;;;;5.63;4.10;;;20.50;51.60;;;;;;5088007;28;20039;-59
2023/10/25 12:39:08;;;;;;;6.03;5.05;;;20.50;51.70;;;;;;5077647;28;20044;-58
2023/10/25 12:41:34;;;;;;;10.55;6.18;;;20.50;51.80;;;;;;5077731;28;20474;-55
2023/10/25 12:44:05;;;;;;;7.60;6.25;;;20.50;51.90;;;;;;5086740;28;20066;-59
2023/10/25 12:46:34;;;;;;;7.25;6.38;;;20.50;51.90;;;;;;5094043;28;20094;-54
2023/10/25 12:49:00;;;;;;;7.78;6.68;;;20.60;51.90;;;;;;5073418;28;20033;-59
2023/10/25 12:51:26;;;;;;;8.32;7.43;;;20.60;51.90;;;;;;5068414;28;20142;-59